createdAt,value
2023-01-29T00:26:23.706Z,1031.00
2023-01-29T00:27:23.702Z,1032.00
2023-01-29T00:28:23.759Z,1032.00
2023-01-29T00:29:23.841Z,1034.00
2023-01-29T00:30:24.744Z,1035.00
2023-01-29T00:31:24.112Z,1034.00
2023-01-29T00:32:24.110Z,1031.00
2023-01-29T00:33:24.067Z,1030.00
2023-01-29T00:34:24.140Z,1032.00
2023-01-29T00:57:26.259Z,1032.00
2023-01-29T00:59:25.526Z,1031.00
2023-01-29T01:00:25.601Z,1027.00
2023-01-29T01:01:25.635Z,1026.00
2023-01-29T01:02:25.697Z,1025.00
2023-01-29T01:03:25.751Z,1025.00
2023-01-29T01:04:25.794Z,1024.00
2023-01-29T01:05:25.867Z,1021.00
2023-01-29T01:06:25.917Z,1022.00
2023-01-29T01:07:25.991Z,1022.00
2023-01-29T01:08:26.043Z,1023.00
2023-01-29T01:09:26.070Z,1020.00
2023-01-29T01:10:26.137Z,1020.00
2023-01-29T01:11:26.198Z,1018.00
2023-01-29T01:12:26.248Z,1017.00
2023-01-29T01:13:26.322Z,1017.00
2023-01-29T01:14:26.337Z,1016.00
2023-01-29T01:15:26.405Z,1016.00
2023-01-29T01:16:26.565Z,1016.00
2023-01-29T01:17:26.511Z,1014.00
2023-01-29T01:18:26.540Z,1013.00
2023-01-29T01:19:26.600Z,1014.00
2023-01-29T01:20:26.659Z,1015.00
2023-01-29T01:21:26.700Z,1015.00
2023-01-29T01:22:27.270Z,1014.00
2023-01-29T01:23:26.827Z,1018.00
2023-01-29T01:24:26.889Z,1018.00
2023-01-29T01:25:26.990Z,1017.00
2023-01-29T01:26:26.964Z,1015.00
2023-01-29T01:27:27.043Z,1014.00
2023-01-29T01:28:27.083Z,1014.00
2023-01-29T01:29:27.143Z,1014.00
2023-01-29T01:30:27.325Z,1018.00
2023-01-29T01:31:27.377Z,1018.00
2023-01-29T01:32:27.345Z,1017.00
2023-01-29T01:33:27.370Z,1016.00
2023-01-29T01:34:27.435Z,1017.00
2023-01-29T01:35:27.486Z,1017.00
2023-01-29T01:36:27.564Z,1019.00
2023-01-29T01:37:27.616Z,1022.00
2023-01-29T01:38:27.672Z,1024.00
2023-01-29T01:39:27.795Z,1022.00
2023-01-29T01:40:27.775Z,1019.00
2023-01-29T01:41:27.834Z,1019.00
2023-01-29T01:42:28.833Z,1020.00
2023-01-29T01:43:27.961Z,1020.00
2023-01-29T01:44:28.016Z,1020.00
2023-01-29T01:45:28.132Z,1019.00
2023-01-29T01:46:28.248Z,1016.00
2023-01-29T01:47:28.167Z,1016.00
2023-01-29T01:48:28.234Z,1012.00
2023-01-29T01:49:28.278Z,1010.00
2023-01-29T01:50:28.346Z,1011.00
2023-01-29T01:51:28.380Z,1012.00
2023-01-29T01:52:28.453Z,1011.00
2023-01-29T02:36:31.790Z,997.00
2023-01-29T02:39:31.062Z,999.00
2023-01-29T02:40:31.125Z,1000.00
2023-01-29T02:41:31.181Z,998.00
2023-01-29T02:42:31.237Z,993.00
2023-01-29T02:43:31.293Z,993.00
2023-01-29T02:44:31.355Z,991.00
2023-01-29T02:45:31.486Z,996.00
2023-01-29T02:46:31.473Z,995.00
2023-01-29T02:47:31.525Z,994.00
2023-01-29T02:48:32.280Z,996.00
2023-01-29T02:49:31.655Z,994.00
2023-01-29T02:50:31.712Z,993.00
2023-01-29T02:51:31.767Z,992.00
2023-01-29T02:52:31.833Z,991.00
2023-01-29T02:53:31.897Z,990.00
2023-01-29T02:54:31.912Z,987.00
2023-01-29T02:55:32.054Z,985.00
2023-01-29T02:56:32.033Z,985.00
2023-01-29T02:57:32.083Z,985.00
2023-01-29T02:58:32.147Z,983.00
2023-01-29T02:59:32.202Z,982.00
2023-01-29T03:00:32.249Z,980.00
2023-01-29T03:01:32.314Z,980.00
2023-01-29T03:02:32.480Z,981.00
2023-01-29T03:03:32.412Z,981.00
2023-01-29T03:04:32.455Z,981.00
2023-01-29T03:05:32.524Z,982.00
2023-01-29T03:06:32.559Z,984.00
2023-01-29T03:07:32.612Z,984.00
2023-01-29T03:09:32.727Z,981.00
2023-01-29T03:10:32.774Z,983.00
2023-01-29T03:11:32.885Z,982.00
2023-01-29T03:12:32.883Z,981.00
2023-01-29T03:13:32.941Z,979.00
2023-01-29T03:14:33.007Z,976.00
2023-01-29T03:15:33.073Z,976.00
2023-01-29T03:16:33.183Z,974.00
2023-01-29T03:17:33.209Z,976.00
2023-01-29T03:18:33.264Z,980.00
2023-01-29T03:19:33.308Z,980.00
2023-01-29T05:39:41.072Z,942.00
2023-01-29T05:40:41.119Z,942.00
2023-01-29T05:41:41.826Z,940.00
2023-01-29T05:42:41.225Z,941.00
2023-01-29T05:43:41.823Z,942.00
2023-01-29T05:44:41.326Z,943.00
2023-01-29T05:45:41.389Z,943.00
2023-01-29T05:46:41.466Z,943.00
2023-01-29T05:47:41.523Z,939.00
2023-01-29T05:48:41.592Z,938.00
2023-01-29T05:49:41.631Z,939.00
2023-01-29T05:50:41.764Z,941.00
2023-01-29T05:51:41.729Z,943.00
2023-01-29T05:52:41.857Z,941.00
2023-01-29T05:53:41.840Z,940.00
2023-01-29T05:54:41.963Z,939.00
2023-01-29T05:55:41.944Z,940.00
2023-01-29T05:56:42.024Z,938.00
2023-01-29T05:57:42.057Z,940.00
2023-01-29T05:58:42.115Z,941.00
2023-01-29T05:59:42.164Z,939.00
2023-01-29T06:00:42.234Z,941.00
2023-01-29T06:01:42.333Z,944.00
2023-01-29T06:02:42.366Z,942.00
2023-01-29T06:03:42.401Z,940.00
2023-01-29T06:05:42.528Z,941.00
2023-01-29T06:44:44.844Z,927.00
2023-01-29T06:46:44.957Z,928.00
2023-01-29T08:29:51.367Z,904.00
2023-01-29T08:30:51.133Z,905.00
2023-01-29T08:31:51.212Z,907.00
2023-01-29T08:32:51.183Z,904.00
2023-01-29T08:33:51.333Z,905.00
2023-01-29T08:34:51.323Z,905.00
2023-01-29T08:35:51.370Z,905.00
2023-01-29T08:36:51.420Z,906.00
2023-01-29T08:37:51.474Z,905.00
2023-01-29T08:38:51.603Z,905.00
2023-01-29T08:39:51.606Z,904.00
2023-01-29T08:40:51.673Z,905.00
2023-01-29T08:41:51.713Z,902.00
2023-01-29T08:42:51.763Z,901.00
2023-01-29T08:43:51.840Z,901.00
2023-01-29T08:44:51.889Z,901.00
2023-01-29T08:45:51.992Z,903.00
2023-01-29T08:46:52.025Z,904.00
2023-01-29T08:47:52.175Z,903.00
2023-01-29T08:48:52.136Z,902.00
2023-01-29T08:49:52.203Z,901.00
2023-01-29T08:50:52.263Z,901.00
2023-01-29T08:51:52.400Z,901.00
2023-01-29T08:52:52.387Z,901.00
2023-01-29T08:53:52.452Z,900.00
2023-01-29T08:54:52.479Z,901.00
2023-01-29T08:55:52.559Z,901.00
2023-01-29T08:56:52.591Z,897.00
2023-01-29T08:57:52.653Z,894.00
2023-01-29T08:58:52.709Z,894.00
2023-01-29T08:59:52.755Z,892.00
2023-01-29T09:00:52.827Z,893.00
2023-01-29T09:01:52.881Z,895.00
2023-01-29T09:02:52.925Z,893.00
2023-01-29T09:03:53.000Z,893.00
2023-01-29T09:04:53.045Z,895.00
2023-01-29T09:05:53.110Z,894.00
2023-01-29T09:06:53.156Z,893.00
2023-01-29T09:07:54.233Z,893.00
2023-01-29T09:08:53.272Z,892.00
2023-01-29T09:10:53.382Z,890.00
2023-01-29T09:11:53.425Z,893.00
2023-01-29T09:12:53.492Z,896.00
2023-01-29T09:13:53.548Z,899.00
2023-01-29T09:14:53.618Z,901.00
2023-01-29T09:15:53.877Z,900.00
2023-01-29T09:17:53.806Z,895.00
2023-01-29T09:18:53.847Z,893.00
2023-01-29T09:19:53.874Z,896.00
2023-01-29T09:20:53.970Z,897.00
2023-01-29T09:21:53.987Z,895.00
2023-01-29T09:22:54.049Z,895.00
2023-01-29T09:23:54.110Z,896.00
2023-01-29T09:24:54.892Z,894.00
2023-01-29T09:25:54.192Z,893.00
2023-01-29T09:26:54.260Z,890.00
2023-01-29T09:27:54.310Z,890.00
2023-01-29T09:28:54.359Z,890.00
2023-01-29T09:29:54.426Z,890.00
2023-01-29T09:30:54.650Z,891.00
2023-01-29T09:31:54.642Z,892.00
2023-01-29T09:32:55.257Z,889.00
2023-01-29T09:33:54.645Z,890.00
2023-01-29T09:34:54.694Z,891.00
2023-01-29T09:35:54.760Z,891.00
2023-01-29T09:36:54.803Z,889.00
2023-01-29T09:37:54.901Z,891.00
2023-01-29T09:38:54.928Z,890.00
2023-01-29T09:39:54.967Z,892.00
2023-01-29T09:40:55.867Z,894.00
2023-01-29T09:41:55.094Z,894.00
2023-01-29T09:42:55.144Z,890.00
2023-01-29T09:43:55.260Z,892.00
2023-01-29T09:44:55.260Z,894.00
2023-01-29T09:45:55.400Z,894.00
2023-01-29T09:46:55.398Z,890.00
2023-01-29T09:47:55.461Z,891.00
2023-01-29T09:48:55.521Z,893.00
2023-01-29T09:49:55.571Z,890.00
2023-01-29T09:50:55.622Z,888.00
2023-01-29T09:51:55.682Z,890.00
2023-01-29T09:52:55.746Z,890.00
2023-01-29T09:53:55.825Z,890.00
2023-01-29T09:54:55.868Z,888.00
2023-01-29T09:55:55.922Z,888.00
2023-01-29T09:56:55.977Z,888.00
2023-01-29T09:57:56.037Z,887.00
2023-01-29T09:58:56.079Z,886.00
2023-01-29T09:59:56.147Z,884.00
2023-01-29T10:00:56.195Z,886.00
2023-01-29T10:01:56.539Z,884.00
2023-01-29T10:02:56.319Z,882.00
2023-01-29T10:03:56.369Z,882.00
2023-01-29T10:04:56.414Z,882.00
2023-01-29T10:05:56.475Z,882.00
2023-01-29T10:06:56.587Z,879.00
2023-01-29T10:07:56.600Z,879.00
2023-01-29T10:08:56.654Z,879.00
2023-01-29T10:09:56.727Z,882.00
2023-01-29T10:11:58.121Z,885.00
2023-01-29T10:12:56.885Z,886.00
2023-01-29T10:13:56.927Z,884.00
2023-01-29T10:14:56.986Z,885.00
2023-01-29T10:15:57.039Z,886.00
2023-01-29T10:16:57.182Z,883.00
2023-01-29T10:17:57.141Z,886.00
2023-01-29T11:25:01.898Z,862.00
2023-01-29T11:26:01.067Z,862.00
2023-01-29T11:27:01.116Z,863.00
2023-01-29T11:28:01.185Z,864.00
2023-01-29T11:29:01.230Z,864.00
2023-01-29T11:30:01.303Z,862.00
2023-01-29T11:31:01.565Z,863.00
2023-01-29T11:32:01.439Z,863.00
2023-01-29T11:33:01.493Z,866.00
2023-01-29T11:34:01.585Z,867.00
2023-01-29T11:35:01.610Z,867.00
2023-01-29T11:36:01.666Z,865.00
2023-01-29T11:37:01.718Z,863.00
2023-01-29T11:38:01.865Z,861.00
2023-01-29T11:39:01.840Z,862.00
2023-01-29T11:40:01.903Z,862.00
2023-01-29T11:41:01.953Z,860.00
2023-01-29T11:42:02.009Z,859.00
2023-01-29T11:43:02.101Z,858.00
2023-01-29T11:44:02.108Z,857.00
2023-01-29T11:45:02.166Z,857.00
2023-01-29T11:46:02.256Z,857.00
2023-01-29T11:47:02.260Z,858.00
2023-01-29T11:48:02.385Z,856.00
2023-01-29T11:49:14.188Z,857.00
2023-01-29T11:50:03.381Z,855.00
2023-01-29T11:51:03.484Z,856.00
2023-01-29T11:52:02.397Z,858.00
2023-01-29T11:53:02.399Z,857.00
2023-01-29T11:54:02.417Z,858.00
2023-01-29T11:55:02.421Z,858.00
2023-01-29T11:56:02.421Z,861.00
2023-01-29T11:57:02.515Z,860.00
2023-01-29T11:58:03.405Z,860.00
2023-01-29T11:59:02.450Z,859.00
2023-01-29T12:00:02.495Z,858.00
2023-01-29T12:01:02.455Z,857.00
2023-01-29T12:02:02.490Z,859.00
2023-01-29T12:03:02.533Z,854.00
2023-01-29T12:04:02.643Z,853.00
2023-01-29T12:05:02.634Z,854.00
2023-01-29T12:06:02.852Z,853.00
2023-01-29T12:07:02.741Z,852.00
2023-01-29T12:08:02.811Z,849.00
2023-01-29T12:09:02.863Z,848.00
2023-01-29T12:10:02.939Z,847.00
2023-01-29T12:11:02.977Z,848.00
2023-01-29T12:12:03.908Z,848.00
2023-01-29T12:13:03.111Z,850.00
2023-01-29T12:14:03.238Z,849.00
2023-01-29T12:15:03.255Z,850.00
2023-01-29T12:16:03.344Z,853.00
2023-01-29T12:17:03.355Z,855.00
2023-01-29T12:18:03.396Z,855.00
2023-01-29T12:19:03.470Z,853.00
2023-01-29T12:20:03.512Z,854.00
2023-01-29T12:21:03.583Z,854.00
2023-01-29T12:22:04.135Z,852.00
2023-01-29T12:23:03.707Z,853.00
2023-01-29T12:24:03.739Z,852.00
2023-01-29T12:25:03.798Z,854.00
2023-01-29T12:26:03.843Z,852.00
2023-01-29T12:27:03.900Z,851.00
2023-01-29T12:28:03.964Z,850.00
2023-01-29T12:29:04.086Z,849.00
2023-01-29T12:30:04.196Z,849.00
2023-01-29T12:31:04.215Z,848.00
2023-01-29T12:32:04.172Z,848.00
2023-01-29T12:33:04.340Z,846.00
2023-01-29T12:34:04.269Z,844.00
2023-01-29T12:35:04.329Z,846.00
2023-01-29T12:36:04.382Z,849.00
2023-01-29T12:37:04.438Z,850.00
2023-01-29T12:38:04.492Z,851.00
2023-01-29T12:39:04.544Z,848.00
2023-01-29T12:40:04.600Z,848.00
2023-01-29T12:41:04.661Z,849.00
2023-01-29T12:42:04.697Z,848.00
2023-01-29T12:43:04.753Z,852.00
2023-01-29T12:44:04.820Z,852.00
2023-01-29T12:45:04.865Z,852.00
2023-01-29T12:46:04.920Z,851.00
2023-01-29T12:47:04.993Z,852.00
2023-01-29T12:48:05.022Z,854.00
2023-01-29T12:49:05.144Z,854.00
2023-01-29T12:50:05.194Z,851.00
2023-01-29T12:51:05.187Z,853.00
2023-01-29T12:52:05.250Z,856.00
2023-01-29T12:53:05.304Z,856.00
2023-01-29T12:54:05.347Z,857.00
2023-01-29T12:55:05.418Z,856.00
2023-01-29T12:56:05.444Z,854.00
2023-01-29T12:57:05.505Z,848.00
2023-01-29T12:58:05.552Z,847.00
2023-01-29T12:59:05.603Z,848.00
2023-01-29T13:00:05.646Z,850.00
2023-01-29T13:01:05.745Z,855.00
2023-01-29T13:02:05.766Z,856.00
2023-01-29T13:03:05.845Z,858.00
2023-01-29T13:04:05.878Z,857.00
2023-01-29T13:05:05.919Z,859.00
2023-01-29T13:06:06.078Z,860.00
2023-01-29T13:07:06.050Z,859.00
2023-01-29T13:08:06.127Z,859.00
2023-01-29T13:09:06.176Z,858.00
2023-01-29T13:10:06.213Z,856.00
2023-01-29T13:11:06.261Z,857.00
2023-01-29T13:12:06.332Z,857.00
2023-01-29T14:41:11.121Z,832.00
2023-01-29T14:42:11.161Z,831.00
2023-01-29T14:43:11.215Z,832.00
2023-01-29T14:44:11.273Z,835.00
2023-01-29T14:45:11.330Z,836.00
2023-01-29T14:46:11.490Z,835.00
2023-01-29T14:47:11.427Z,835.00
2023-01-29T14:48:11.611Z,838.00
2023-01-29T14:49:11.541Z,841.00
2023-01-29T14:50:11.593Z,841.00
2023-01-29T14:51:11.638Z,840.00
2023-01-29T14:52:11.759Z,837.00
2023-01-29T14:53:11.734Z,838.00
2023-01-29T14:54:11.779Z,836.00
2023-01-29T14:55:11.841Z,835.00
2023-01-29T14:56:11.889Z,834.00
2023-01-29T14:57:11.935Z,835.00
2023-01-29T14:58:11.985Z,838.00
2023-01-29T14:59:12.033Z,838.00
2023-01-29T15:00:12.151Z,838.00
2023-01-29T15:01:12.141Z,836.00
2023-01-29T15:02:12.229Z,835.00
2023-01-29T15:03:12.262Z,833.00
2023-01-29T15:04:13.112Z,833.00
2023-01-29T15:05:12.333Z,834.00
2023-01-29T15:06:12.375Z,833.00
2023-01-29T15:07:12.467Z,831.00
2023-01-29T15:11:12.616Z,835.00
2023-01-29T15:36:14.461Z,830.00
2023-01-29T15:37:13.949Z,830.00
2023-01-29T15:38:13.997Z,831.00
2023-01-29T15:39:14.037Z,831.00
2023-01-29T15:40:14.093Z,827.00
2023-01-29T15:41:14.135Z,825.00
2023-01-29T15:42:14.185Z,824.00
2023-01-29T15:43:14.224Z,824.00
2023-01-29T15:44:14.278Z,825.00
2023-01-29T15:45:14.545Z,824.00
2023-01-29T15:46:14.380Z,822.00
2023-01-29T15:47:14.459Z,822.00
2023-01-29T15:48:14.477Z,822.00
2023-01-29T15:49:14.513Z,822.00
2023-01-29T15:50:14.549Z,820.00
2023-01-29T15:51:14.598Z,818.00
2023-01-29T15:52:14.631Z,819.00
2023-01-29T15:53:14.729Z,820.00
2023-01-29T15:54:15.823Z,820.00
2023-01-29T15:55:15.384Z,819.00
2023-01-29T15:56:14.802Z,818.00
2023-01-29T15:57:14.849Z,819.00
2023-01-29T15:58:14.883Z,821.00
2023-01-29T15:59:14.948Z,822.00
2023-01-29T16:00:14.965Z,823.00
2023-01-29T16:01:15.047Z,823.00
2023-01-29T16:03:15.102Z,824.00
2023-01-29T16:04:15.469Z,824.00
2023-01-29T16:05:15.606Z,821.00
2023-01-29T16:06:15.225Z,822.00
2023-01-29T16:07:15.267Z,824.00
2023-01-29T16:08:15.315Z,824.00
2023-01-29T16:09:15.365Z,825.00
2023-01-29T16:10:15.419Z,827.00
2023-01-29T16:11:15.435Z,825.00
2023-01-29T16:12:15.493Z,821.00
2023-01-29T16:13:15.548Z,821.00
2023-01-29T16:14:16.484Z,820.00
2023-01-29T16:15:15.968Z,821.00
2023-01-29T16:16:15.785Z,819.00
2023-01-29T16:17:15.720Z,818.00
2023-01-29T16:18:15.754Z,820.00
2023-01-29T16:19:15.869Z,820.00
2023-01-29T16:20:16.468Z,822.00
2023-01-29T16:21:15.877Z,824.00
2023-01-29T16:22:15.922Z,824.00
2023-01-29T16:23:16.473Z,823.00
2023-01-29T16:24:16.045Z,824.00
2023-01-29T16:25:16.489Z,821.00
2023-01-29T16:26:16.089Z,822.00
2023-01-29T16:27:16.465Z,825.00
2023-01-29T16:28:16.136Z,824.00
2023-01-29T16:29:16.171Z,823.00
2023-01-29T16:30:16.222Z,824.00
2023-01-29T16:31:16.383Z,824.00
2023-01-29T16:32:16.370Z,823.00
2023-01-29T16:33:16.967Z,823.00
2023-01-29T16:34:16.345Z,822.00
2023-01-29T16:35:16.894Z,821.00
2023-01-29T16:36:16.428Z,821.00
2023-01-29T16:37:16.455Z,819.00
2023-01-29T16:38:16.475Z,819.00
2023-01-29T16:39:16.511Z,822.00
2023-01-29T16:40:16.554Z,821.00
2023-01-29T16:41:16.579Z,821.00
2023-01-29T16:42:16.609Z,818.00
2023-01-29T16:43:16.639Z,819.00
2023-01-29T16:44:16.691Z,819.00
2023-01-29T16:45:17.023Z,817.00
2023-01-29T16:46:16.770Z,812.00
2023-01-29T16:47:16.780Z,811.00
2023-01-29T16:48:16.807Z,810.00
2023-01-29T16:49:16.851Z,810.00
2023-01-29T18:33:21.499Z,797.00
2023-01-29T18:46:21.085Z,814.00
2023-01-29T18:47:21.101Z,816.00
2023-01-29T18:48:21.147Z,814.00
2023-01-29T18:49:21.179Z,812.00
2023-01-29T18:50:21.227Z,812.00
2023-01-29T18:51:21.269Z,811.00
2023-01-29T18:52:21.300Z,810.00
2023-01-29T18:53:21.340Z,808.00
2023-01-29T18:54:21.381Z,808.00
2023-01-29T18:55:21.400Z,805.00
2023-01-29T18:56:21.493Z,804.00
2023-01-29T18:58:27.239Z,805.00
2023-01-29T18:58:28.806Z,806.00
2023-01-29T18:59:22.529Z,805.00
2023-01-29T19:00:21.462Z,804.00
2023-01-29T19:01:21.514Z,801.00
2023-01-29T19:02:21.484Z,799.00
2023-01-29T19:03:21.429Z,795.00
2023-01-29T19:04:21.433Z,795.00
2023-01-29T19:05:21.444Z,793.00
2023-01-29T19:06:21.443Z,793.00
2023-01-29T19:07:21.436Z,792.00
2023-01-29T19:08:21.425Z,793.00
2023-01-29T19:09:21.407Z,795.00
2023-01-29T19:10:21.402Z,796.00
2023-01-29T19:11:21.423Z,797.00
2023-01-29T19:12:21.490Z,798.00
2023-01-29T19:13:21.499Z,799.00
2023-01-29T19:14:21.408Z,799.00
2023-01-29T19:15:21.417Z,799.00
2023-01-29T19:16:21.429Z,799.00
2023-01-29T19:17:21.453Z,800.00
2023-01-29T19:18:21.421Z,801.00
2023-01-29T19:19:21.413Z,799.00
2023-01-29T19:20:21.416Z,796.00
2023-01-29T19:21:21.424Z,797.00
2023-01-29T19:22:21.409Z,799.00
2023-01-29T19:23:21.449Z,799.00
2023-01-29T19:24:21.403Z,799.00
2023-01-29T19:25:21.620Z,799.00
2023-01-29T19:26:22.036Z,798.00
2023-01-29T19:27:21.393Z,798.00
2023-01-29T19:28:21.408Z,796.00
2023-01-29T19:29:21.386Z,795.00
2023-01-29T19:30:21.396Z,794.00
2023-01-29T19:31:21.501Z,793.00
2023-01-29T19:32:21.385Z,794.00
2023-01-29T19:33:21.385Z,795.00
2023-01-29T19:34:21.424Z,797.00
2023-01-29T19:35:21.408Z,798.00
2023-01-29T19:36:21.441Z,799.00
2023-01-29T19:37:21.470Z,800.00
2023-01-29T19:38:21.534Z,799.00
2023-01-29T19:39:21.564Z,800.00
2023-01-29T19:40:21.601Z,800.00
2023-01-29T19:41:21.641Z,801.00
2023-01-29T19:42:21.674Z,801.00
2023-01-29T19:43:21.710Z,801.00
2023-01-29T19:44:24.608Z,798.00
2023-01-29T19:45:49.194Z,797.00
2023-01-29T19:46:22.761Z,795.00
2023-01-29T19:47:21.756Z,793.00
2023-01-29T19:48:22.056Z,793.00
2023-01-29T19:49:21.725Z,791.00
2023-01-29T19:50:21.730Z,790.00
2023-01-29T19:51:21.726Z,789.00
2023-01-29T19:52:21.728Z,789.00
2023-01-29T19:53:21.735Z,789.00
2023-01-29T19:54:21.717Z,788.00
2023-01-29T19:55:21.708Z,790.00
2023-01-29T19:56:21.705Z,791.00
2023-01-29T19:57:21.836Z,788.00
2023-01-29T19:58:21.730Z,790.00
2023-01-29T19:59:21.710Z,789.00
2023-01-29T20:00:21.707Z,790.00
2023-01-29T20:01:21.705Z,789.00
2023-01-29T20:02:21.718Z,789.00
2023-01-29T20:03:21.766Z,791.00
2023-01-29T20:04:21.808Z,791.00
2023-01-29T20:05:21.844Z,791.00
2023-01-29T20:06:21.868Z,790.00
2023-01-29T20:07:21.914Z,789.00
2023-01-29T20:08:21.961Z,787.00
2023-01-29T20:09:22.014Z,786.00
2023-01-29T20:10:22.042Z,784.00
2023-01-29T20:11:22.077Z,785.00
2023-01-29T20:12:22.133Z,788.00
2023-01-29T20:13:22.153Z,786.00
2023-01-29T20:14:22.198Z,786.00
2023-01-29T20:15:22.226Z,786.00
2023-01-29T20:16:22.279Z,786.00
2023-01-29T20:17:22.291Z,786.00
2023-01-29T20:18:22.337Z,789.00
2023-01-29T20:19:22.366Z,789.00
2023-01-29T20:20:22.412Z,790.00
2023-01-29T20:21:22.637Z,789.00
2023-01-29T20:22:22.490Z,790.00
2023-01-29T20:23:36.701Z,787.00
2023-01-29T20:24:24.037Z,784.00
2023-01-29T20:25:22.503Z,782.00
2023-01-29T20:26:23.046Z,782.00
2023-01-29T20:27:22.511Z,779.00
2023-01-29T20:28:22.502Z,781.00
2023-01-29T20:29:22.519Z,777.00
2023-01-29T20:30:22.583Z,777.00
2023-01-29T20:31:22.530Z,779.00
2023-01-29T20:32:22.544Z,782.00
2023-01-29T20:33:22.526Z,785.00
2023-01-29T20:34:22.515Z,784.00
2023-01-29T20:35:22.535Z,784.00
2023-01-29T20:36:22.518Z,784.00
2023-01-29T20:37:22.520Z,787.00
2023-01-29T20:38:22.579Z,785.00
2023-01-29T20:39:22.515Z,785.00
2023-01-29T20:40:22.508Z,787.00
2023-01-29T20:41:22.547Z,789.00
2023-01-29T20:42:22.545Z,791.00
2023-01-29T20:43:22.569Z,793.00
2023-01-29T20:44:22.600Z,794.00
2023-01-29T20:45:23.536Z,793.00
2023-01-29T20:46:22.730Z,792.00
2023-01-29T20:47:22.706Z,791.00
2023-01-29T20:48:24.455Z,789.00
2023-01-29T20:49:22.779Z,789.00
2023-01-29T20:50:22.813Z,786.00
2023-01-29T20:51:22.861Z,784.00
2023-01-29T20:52:22.893Z,786.00
2023-01-29T20:53:22.920Z,786.00
2023-01-29T20:54:22.970Z,783.00
2023-01-29T20:55:23.000Z,782.00
2023-01-29T20:56:37.430Z,779.00
2023-01-29T20:57:24.044Z,777.00
2023-01-29T20:58:23.026Z,775.00
2023-01-29T20:59:23.092Z,777.00
2023-01-29T21:00:23.027Z,777.00
2023-01-29T21:01:23.041Z,779.00
2023-01-29T21:02:23.135Z,781.00
2023-01-29T21:03:23.057Z,778.00
2023-01-29T21:04:23.020Z,779.00
2023-01-29T21:05:23.031Z,782.00
2023-01-29T21:06:23.028Z,785.00
2023-01-29T21:07:23.016Z,782.00
2023-01-29T21:08:23.080Z,781.00
2023-01-29T21:09:22.996Z,780.00
2023-01-29T21:10:22.995Z,779.00
2023-01-29T21:11:23.002Z,778.00
2023-01-29T21:12:22.992Z,775.00
2023-01-29T21:13:23.148Z,774.00
2023-01-29T21:14:23.048Z,774.00
2023-01-29T21:15:23.081Z,776.00
2023-01-29T21:16:23.993Z,777.00
2023-01-29T21:17:23.159Z,777.00
